createdAt,value
2022-09-12T00:01:20.259Z,98998.47
2022-09-12T00:03:47.205Z,98987.19
2022-09-12T00:06:22.548Z,98997.22
2022-09-12T00:08:49.840Z,99001.31
2022-09-12T00:11:16.725Z,98996.44
2022-09-12T00:13:43.773Z,98995.00
2022-09-12T00:16:23.899Z,98985.13
2022-09-12T00:18:51.383Z,98981.84
2022-09-12T00:21:18.321Z,98996.97
2022-09-12T00:23:45.355Z,98988.75
2022-09-12T00:26:12.318Z,98994.22
2022-09-12T00:28:39.665Z,98989.09
2022-09-12T00:31:14.485Z,98995.66
2022-09-12T00:33:41.563Z,98989.25
2022-09-12T00:36:26.638Z,98989.75
2022-09-12T00:38:54.671Z,98998.22
2022-09-12T00:41:28.030Z,99000.47
2022-09-12T00:43:59.773Z,98996.66
2022-09-12T00:46:36.097Z,98989.84
2022-09-12T00:49:13.419Z,98989.03
2022-09-12T00:51:41.655Z,98982.41
2022-09-12T00:54:11.938Z,98964.44
2022-09-12T00:56:39.072Z,98986.66
2022-09-12T00:59:10.889Z,98984.25
2022-09-12T01:01:37.871Z,98987.47
2022-09-12T01:04:04.754Z,98979.94
2022-09-12T01:06:40.680Z,98988.97
2022-09-12T01:09:08.155Z,98986.56
2022-09-12T01:11:36.351Z,98976.41
2022-09-12T01:14:05.938Z,98977.06
2022-09-12T01:16:34.704Z,98981.06
2022-09-12T01:19:38.680Z,98987.38
2022-09-12T01:22:20.532Z,98980.97
2022-09-12T01:24:58.874Z,98985.22
2022-09-12T01:28:03.171Z,98977.78
2022-09-12T01:30:52.357Z,98967.63
2022-09-12T01:33:30.709Z,98974.59
2022-09-12T01:36:31.591Z,98976.88
2022-09-12T01:39:04.957Z,98981.59
2022-09-12T01:41:31.839Z,98983.09
2022-09-12T01:44:21.926Z,98980.72
2022-09-12T01:46:53.080Z,98980.25
2022-09-12T01:49:56.011Z,98980.25
2022-09-12T01:52:28.378Z,98973.50
2022-09-12T01:55:20.288Z,98971.22
2022-09-12T01:58:04.561Z,98966.44
2022-09-12T02:00:35.901Z,98975.00
2022-09-12T02:03:10.447Z,98982.53
2022-09-12T02:05:47.971Z,98974.31
2022-09-12T02:08:17.908Z,98983.69
2022-09-12T02:10:52.737Z,98976.16
2022-09-12T02:13:23.404Z,98984.81
2022-09-12T02:15:53.039Z,98977.75
2022-09-12T02:18:19.884Z,98974.56
2022-09-12T02:20:48.990Z,98985.88
2022-09-12T02:23:21.809Z,98984.31
2022-09-12T02:25:49.622Z,98984.31
2022-09-12T02:28:25.493Z,98981.00
2022-09-12T02:30:56.939Z,98986.03
2022-09-12T02:33:27.684Z,98977.00
2022-09-12T02:35:59.334Z,98973.34
2022-09-12T02:38:44.424Z,98982.50
2022-09-12T02:41:12.326Z,98977.72
2022-09-12T02:43:39.357Z,98981.25
2022-09-12T02:46:07.630Z,98951.06
2022-09-12T02:48:35.013Z,98983.19
2022-09-12T02:51:01.897Z,98978.28
2022-09-12T02:53:28.808Z,98982.41
2022-09-12T02:55:55.757Z,98990.97
2022-09-12T02:58:25.419Z,98991.66
2022-09-12T03:01:24.281Z,98990.88
2022-09-12T03:04:05.895Z,98989.03
2022-09-12T03:06:57.623Z,98993.00
2022-09-12T03:09:44.128Z,98991.75
2022-09-12T03:12:16.870Z,98992.47
2022-09-12T03:15:03.778Z,98980.25
2022-09-12T03:17:31.343Z,98990.31
2022-09-12T03:20:06.881Z,98987.22
2022-09-12T03:22:50.937Z,98982.56
2022-09-12T03:25:32.290Z,98981.31
2022-09-12T03:28:10.225Z,98971.06
2022-09-12T03:30:41.665Z,98983.81
2022-09-12T03:33:11.725Z,98998.22
2022-09-12T03:35:38.664Z,98993.34
2022-09-12T03:38:08.004Z,98999.84
2022-09-12T03:40:35.923Z,98995.25
2022-09-12T03:43:03.283Z,98994.97
2022-09-12T03:45:30.407Z,98995.59
2022-09-12T03:47:57.609Z,98996.28
2022-09-12T03:50:24.582Z,99001.16
2022-09-12T03:52:51.445Z,98977.84
2022-09-12T03:55:18.766Z,98979.25
2022-09-12T03:57:45.672Z,98991.47
2022-09-12T04:00:17.642Z,98969.56
2022-09-12T04:02:46.827Z,99000.84
2022-09-12T04:05:13.874Z,98982.91
2022-09-12T04:07:40.824Z,98999.56
2022-09-12T04:10:09.642Z,99005.06
2022-09-12T04:12:37.009Z,99002.84
2022-09-12T04:15:04.574Z,99002.91
2022-09-12T04:17:33.924Z,99006.22
2022-09-12T04:20:01.153Z,99006.59
2022-09-12T04:22:28.151Z,98996.38
2022-09-12T04:24:55.388Z,98997.97
2022-09-12T04:27:22.388Z,98995.38
2022-09-12T04:29:49.244Z,99005.22
2022-09-12T04:32:16.200Z,98998.97
2022-09-12T04:34:43.290Z,98991.19
2022-09-12T04:37:11.857Z,98997.25
2022-09-12T04:39:39.045Z,98992.63
2022-09-12T04:42:06.313Z,98996.34
2022-09-12T04:44:33.231Z,99001.09
2022-09-12T04:47:00.362Z,98993.06
2022-09-12T04:49:27.238Z,99004.44
2022-09-12T04:51:55.316Z,99003.84
2022-09-12T04:54:22.358Z,99007.00
2022-09-12T04:56:49.782Z,99014.25
2022-09-12T04:59:20.823Z,98994.34
2022-09-12T05:01:48.639Z,99011.19
2022-09-12T05:04:15.862Z,99015.75
2022-09-12T05:06:42.930Z,99024.06
2022-09-12T05:09:11.829Z,99027.38
2022-09-12T05:12:03.315Z,99011.47
2022-09-12T05:14:27.134Z,99031.72
2022-09-12T05:16:54.297Z,99011.16
2022-09-12T05:19:21.326Z,99035.41
2022-09-12T05:21:48.368Z,99039.53
2022-09-12T05:24:15.440Z,99027.59
2022-09-12T05:26:42.760Z,99022.66
2022-09-12T05:29:09.806Z,99044.28
2022-09-12T05:31:37.739Z,99056.91
2022-09-12T05:34:07.147Z,99047.00
2022-09-12T05:36:34.470Z,99054.88
2022-09-12T05:39:01.618Z,99057.03
2022-09-12T05:41:30.949Z,99043.84
2022-09-12T05:43:59.563Z,99058.28
2022-09-12T05:46:28.157Z,99060.84
2022-09-12T05:48:56.548Z,99062.09
2022-09-12T05:51:25.595Z,99066.19
2022-09-12T05:54:00.142Z,99062.25
2022-09-12T05:56:34.454Z,99060.66
2022-09-12T05:59:03.438Z,99064.53
2022-09-12T06:01:31.424Z,99062.56
2022-09-12T06:04:01.039Z,99071.84
2022-09-12T06:06:29.111Z,99066.44
2022-09-12T06:09:00.866Z,99030.69
2022-09-12T06:11:29.817Z,99076.38
2022-09-12T06:13:58.017Z,99065.00
2022-09-12T06:16:27.260Z,99048.38
2022-09-12T06:18:55.895Z,99063.84
2022-09-12T06:21:23.407Z,99070.63
2022-09-12T06:23:50.822Z,99068.00
2022-09-12T06:26:18.743Z,99057.72
2022-09-12T06:28:45.756Z,99080.72
2022-09-12T06:31:17.330Z,99077.56
2022-09-12T06:33:46.401Z,99066.75
2022-09-12T06:36:16.159Z,99068.16
2022-09-12T06:38:43.276Z,99069.41
2022-09-12T06:41:12.406Z,99079.09
2022-09-12T06:43:40.116Z,99082.78
2022-09-12T06:46:07.834Z,99086.38
2022-09-12T06:48:38.327Z,99062.97
2022-09-12T06:51:11.287Z,99090.81
2022-09-12T06:53:38.440Z,99096.31
2022-09-12T06:56:24.649Z,99090.03
2022-09-12T06:58:51.782Z,99095.56
2022-09-12T07:01:36.742Z,99099.81
2022-09-12T07:04:04.219Z,99082.47
2022-09-12T07:06:39.967Z,99096.69
2022-09-12T07:09:08.881Z,99103.78
2022-09-12T07:11:36.739Z,99094.50
2022-09-12T07:14:05.032Z,99089.22
2022-09-12T07:16:32.020Z,99101.09
2022-09-12T07:19:00.287Z,99112.50
2022-09-12T07:21:27.746Z,99107.91
2022-09-12T07:24:00.945Z,99114.16
2022-09-12T07:26:29.374Z,99107.75
2022-09-12T07:29:12.888Z,99088.13
2022-09-12T07:31:44.083Z,99110.41
2022-09-12T07:34:11.285Z,99093.16
2022-09-12T07:36:39.214Z,99114.91
2022-09-12T07:39:06.169Z,99120.31
2022-09-12T07:41:36.249Z,99093.19
2022-09-12T07:44:03.518Z,99125.03
2022-09-12T07:46:31.239Z,99123.16
2022-09-12T07:48:58.728Z,99123.47
2022-09-12T07:51:26.804Z,99122.44
2022-09-12T07:53:53.951Z,99133.00
2022-09-12T07:56:22.049Z,99086.78
2022-09-12T07:58:51.018Z,99132.44
2022-09-12T08:01:23.448Z,99133.13
2022-09-12T08:03:59.472Z,99133.75
2022-09-12T08:06:27.734Z,99133.56
2022-09-12T08:08:55.566Z,99142.78
2022-09-12T08:11:22.870Z,99134.28
2022-09-12T08:13:55.412Z,99136.38
2022-09-12T08:16:24.568Z,99138.63
2022-09-12T08:18:51.768Z,99132.03
2022-09-12T08:21:28.258Z,99135.53
2022-09-12T08:24:00.874Z,99136.16
2022-09-12T08:26:28.333Z,99138.34
2022-09-12T08:28:55.303Z,99128.72
2022-09-12T08:31:23.446Z,99142.56
2022-09-12T08:33:50.597Z,99121.63
2022-09-12T08:36:20.380Z,99108.00
2022-09-12T08:38:48.727Z,99131.25
2022-09-12T08:41:18.452Z,99125.09
2022-09-12T08:43:54.541Z,99138.50
2022-09-12T08:46:28.796Z,99129.16
2022-09-12T08:48:56.011Z,99133.13
2022-09-12T08:51:23.170Z,99139.50
2022-09-12T08:53:50.775Z,99135.03
2022-09-12T08:56:17.728Z,99141.06
2022-09-12T08:58:45.485Z,99129.94
2022-09-12T09:01:21.507Z,99131.97
2022-09-12T09:04:01.642Z,99132.41
2022-09-12T09:06:37.521Z,99141.06
2022-09-12T09:09:07.253Z,99136.19
2022-09-12T09:11:44.055Z,99115.31
2022-09-12T09:14:50.779Z,99141.25
2022-09-12T09:17:45.112Z,99131.69
2022-09-12T09:20:30.233Z,99126.56
2022-09-12T09:23:13.083Z,99117.22
2022-09-12T09:25:44.774Z,99124.16
2022-09-12T09:28:17.696Z,99127.63
2022-09-12T09:30:45.184Z,99130.50
2022-09-12T09:33:23.732Z,99131.34
2022-09-12T09:35:56.997Z,99101.13
2022-09-12T09:38:49.917Z,99135.75
2022-09-12T09:41:48.877Z,99132.69
2022-09-12T09:44:15.979Z,99132.75
2022-09-12T09:46:42.991Z,99129.78
2022-09-12T09:49:14.680Z,99125.72
2022-09-12T09:51:41.882Z,99115.88
2022-09-12T09:54:17.941Z,99117.63
2022-09-12T09:56:45.019Z,99125.75
2022-09-12T09:59:30.386Z,99119.31
2022-09-12T10:02:04.043Z,99122.00
2022-09-12T10:04:41.073Z,99129.41
2022-09-12T10:07:18.966Z,99089.41
2022-09-12T10:10:07.688Z,99122.50
2022-09-12T10:12:34.742Z,99128.84
2022-09-12T10:15:03.077Z,99125.78
2022-09-12T10:17:42.517Z,99131.41
2022-09-12T10:20:40.009Z,99130.72
2022-09-12T10:23:19.169Z,99126.91
2022-09-12T10:25:48.118Z,99123.44
2022-09-12T10:28:29.612Z,99103.53
2022-09-12T10:30:56.695Z,99120.03
2022-09-12T10:33:24.531Z,99117.88
2022-09-12T10:35:51.641Z,99113.25
2022-09-12T10:38:28.580Z,99116.31
2022-09-12T10:41:00.513Z,99115.13
2022-09-12T10:43:31.213Z,99122.19
2022-09-12T10:45:59.183Z,99107.66
2022-09-12T10:48:30.408Z,99106.72
2022-09-12T10:51:00.934Z,99107.44
2022-09-12T10:53:41.648Z,99108.94
2022-09-12T10:56:11.014Z,99104.47
2022-09-12T10:59:05.956Z,99115.59
2022-09-12T11:01:32.805Z,99115.66
2022-09-12T11:04:20.656Z,99118.78
2022-09-12T11:07:16.877Z,99121.06
2022-09-12T11:10:19.327Z,99121.22
2022-09-12T11:13:10.919Z,99107.25
2022-09-12T11:16:10.295Z,99114.69
2022-09-12T11:18:37.195Z,99109.97
2022-09-12T11:21:23.155Z,99114.75
2022-09-12T11:24:15.031Z,99078.06
2022-09-12T11:26:51.222Z,99103.94
2022-09-12T11:29:21.432Z,99106.25
2022-09-12T11:31:51.403Z,99101.13
2022-09-12T11:34:25.693Z,99104.22
2022-09-12T11:36:58.608Z,99097.91
2022-09-12T11:39:37.770Z,99082.66
2022-09-12T11:42:05.733Z,99108.53
2022-09-12T11:44:40.261Z,99117.53
2022-09-12T11:47:08.436Z,99103.19
2022-09-12T11:49:38.331Z,99079.84
2022-09-12T11:52:11.194Z,99115.97
2022-09-12T11:54:41.933Z,99107.31
2022-09-12T11:57:19.273Z,99114.34
2022-09-12T11:59:54.380Z,99113.91
2022-09-12T12:02:34.127Z,99098.66
2022-09-12T12:05:20.755Z,99123.72
2022-09-12T12:07:58.365Z,99126.91
2022-09-12T12:10:39.879Z,99117.06
2022-09-12T12:13:35.837Z,99116.31
2022-09-12T12:16:16.632Z,99095.09
2022-09-12T12:18:43.832Z,99120.06
2022-09-12T12:21:32.076Z,99114.09
2022-09-12T12:24:04.898Z,99099.88
2022-09-12T12:27:00.847Z,99112.94
2022-09-12T12:29:44.035Z,99108.94
2022-09-12T12:32:11.221Z,99110.59
2022-09-12T12:34:42.047Z,99108.69
2022-09-12T12:37:25.760Z,99106.88
2022-09-12T12:40:02.895Z,99103.03
2022-09-12T12:42:32.805Z,99091.13
2022-09-12T12:45:03.749Z,99093.72
2022-09-12T12:47:40.261Z,99092.16
2022-09-12T12:50:10.276Z,99086.78
2022-09-12T12:52:53.929Z,99085.06
2022-09-12T12:55:23.498Z,99074.13
2022-09-12T12:58:14.711Z,99076.69
2022-09-12T13:00:41.903Z,99047.13
2022-09-12T13:03:29.065Z,99073.13
2022-09-12T13:06:00.877Z,99048.13
2022-09-12T13:08:32.566Z,99070.84
2022-09-12T13:11:01.597Z,99072.06
2022-09-12T13:13:51.941Z,99079.41
2022-09-12T13:16:34.279Z,99069.91
2022-09-12T13:19:17.457Z,99041.09
2022-09-12T13:22:07.618Z,99046.25
2022-09-12T13:24:35.694Z,99072.06
2022-09-12T13:27:02.856Z,99066.19
2022-09-12T13:29:29.737Z,99067.03
2022-09-12T13:32:00.833Z,99074.63
2022-09-12T13:34:31.383Z,99062.78
2022-09-12T13:37:13.363Z,99056.13
2022-09-12T13:40:01.335Z,99057.28
2022-09-12T13:43:00.485Z,99054.44
2022-09-12T13:45:27.548Z,99060.16
2022-09-12T13:48:02.081Z,99049.34
2022-09-12T13:50:32.212Z,99052.47
2022-09-12T13:53:03.700Z,99033.41
2022-09-12T13:55:39.360Z,99043.56
2022-09-12T13:58:15.975Z,99043.22
2022-09-12T14:00:42.819Z,99049.50
2022-09-12T14:03:44.791Z,99037.31
2022-09-12T14:06:12.724Z,99053.84
2022-09-12T14:08:41.604Z,99044.03
2022-09-12T14:11:11.983Z,99046.06
2022-09-12T14:13:41.511Z,99039.78
2022-09-12T14:16:10.290Z,99050.47
2022-09-12T14:18:37.893Z,99042.97
2022-09-12T14:21:12.808Z,99048.59
2022-09-12T14:23:43.275Z,99031.03
2022-09-12T14:26:12.400Z,99049.25
2022-09-12T14:28:42.463Z,99038.16
2022-09-12T14:31:15.953Z,99040.66
2022-09-12T14:33:47.211Z,99041.50
2022-09-12T14:36:24.663Z,99044.72
2022-09-12T14:38:55.530Z,99043.94
2022-09-12T14:41:27.980Z,99046.97
2022-09-12T14:43:57.179Z,99048.19
2022-09-12T14:46:32.349Z,99049.72
2022-09-12T14:49:06.876Z,99044.53
2022-09-12T14:51:34.739Z,99043.69
2022-09-12T14:54:01.611Z,99045.50
2022-09-12T14:56:42.321Z,99048.22
2022-09-12T14:59:35.235Z,99041.78
2022-09-12T15:02:14.465Z,99043.44
2022-09-12T15:04:42.158Z,99032.41
2022-09-12T15:07:34.018Z,99038.91
2022-09-12T15:10:02.465Z,99039.75
2022-09-12T15:12:29.421Z,99042.59
2022-09-12T15:15:18.955Z,99037.97
2022-09-12T15:17:45.869Z,99023.34
2022-09-12T15:20:13.461Z,99039.31
2022-09-12T15:22:40.596Z,99036.22
2022-09-12T15:25:07.995Z,99036.69
2022-09-12T15:27:34.804Z,99034.66
2022-09-12T15:30:02.547Z,99035.50
2022-09-12T15:32:29.768Z,99042.63
2022-09-12T15:34:57.165Z,99031.19
2022-09-12T15:37:24.225Z,99033.13
2022-09-12T15:39:51.301Z,99019.66
2022-09-12T15:42:19.016Z,99040.22
2022-09-12T15:44:45.963Z,99038.66
2022-09-12T15:47:13.436Z,99040.19
2022-09-12T15:49:40.743Z,99034.72
2022-09-12T15:52:08.199Z,99041.44
2022-09-12T15:54:36.241Z,99038.69
2022-09-12T15:57:03.120Z,99039.44
2022-09-12T15:59:31.204Z,99037.91
2022-09-12T16:01:58.506Z,99045.38
2022-09-12T16:04:27.285Z,99041.44
2022-09-12T16:06:54.887Z,99033.03
2022-09-12T16:09:22.042Z,99050.50
2022-09-12T16:11:48.962Z,99050.84
2022-09-12T16:14:16.955Z,99031.75
2022-09-12T16:16:43.961Z,99048.47
2022-09-12T16:19:10.948Z,99031.88
2022-09-12T16:21:37.920Z,99041.56
2022-09-12T16:24:04.945Z,99049.06
2022-09-12T16:26:31.856Z,99049.44
2022-09-12T16:28:59.050Z,99049.25
2022-09-12T16:31:26.408Z,99044.56
2022-09-12T16:33:53.452Z,99030.91
2022-09-12T16:36:21.238Z,99050.47
2022-09-12T16:38:49.470Z,99047.47
2022-09-12T16:41:17.007Z,99044.09
2022-09-12T16:43:44.067Z,99050.41
2022-09-12T16:46:19.014Z,99043.25
2022-09-12T16:48:52.352Z,99051.13
2022-09-12T16:51:26.864Z,99042.81
2022-09-12T16:53:54.540Z,99041.28
2022-09-12T16:56:21.448Z,99037.19
2022-09-12T16:58:48.363Z,99036.50
2022-09-12T17:01:17.444Z,99040.50
2022-09-12T17:03:44.307Z,99034.19
2022-09-12T17:06:12.714Z,99031.78
2022-09-12T17:08:41.318Z,99034.19
2022-09-12T17:11:12.523Z,99033.25
2022-09-12T17:14:00.589Z,99032.41
2022-09-12T17:16:27.116Z,99022.97
2022-09-12T17:18:54.070Z,99033.31
2022-09-12T17:21:21.294Z,99034.47
2022-09-12T17:23:48.394Z,99038.41
2022-09-12T17:26:15.599Z,99042.69
2022-09-12T17:28:42.535Z,99047.00
2022-09-12T17:31:10.954Z,99044.22
2022-09-12T17:33:39.086Z,99027.47
2022-09-12T17:36:16.653Z,99044.53
2022-09-12T17:38:44.493Z,99046.06
2022-09-12T17:41:19.617Z,99056.69
2022-09-12T17:43:51.354Z,99049.97
2022-09-12T17:46:19.374Z,99059.75
2022-09-12T17:48:54.149Z,99027.97
2022-09-12T17:51:21.705Z,99054.56
2022-09-12T17:53:48.686Z,99047.47
2022-09-12T17:56:15.708Z,99038.16
2022-09-12T17:58:42.576Z,99062.72
2022-09-12T18:01:33.887Z,99062.72
2022-09-12T18:04:01.511Z,99019.69
2022-09-12T18:06:28.723Z,99065.72
2022-09-12T18:08:55.743Z,99074.34
2022-09-12T18:11:22.615Z,99069.56
2022-09-12T18:13:49.548Z,99067.16
2022-09-12T18:16:17.608Z,99072.22
2022-09-12T18:18:44.553Z,99071.00
2022-09-12T18:21:11.783Z,99071.00
2022-09-12T18:23:38.738Z,99077.22
2022-09-12T18:26:07.306Z,99071.66
2022-09-12T18:28:38.300Z,99071.59
2022-09-12T18:31:06.722Z,99066.41
2022-09-12T18:33:34.022Z,99065.94
2022-09-12T18:36:07.513Z,99061.94
2022-09-12T18:38:34.367Z,99074.41
2022-09-12T18:41:05.096Z,99074.59
2022-09-12T18:43:32.139Z,99068.34
2022-09-12T18:46:05.638Z,99062.91
2022-09-12T18:48:32.940Z,99064.03
2022-09-12T18:51:19.069Z,99065.16
2022-09-12T18:53:56.375Z,99058.81
2022-09-12T18:56:24.415Z,99064.69
2022-09-12T18:58:52.952Z,99059.97
2022-09-12T19:01:38.760Z,99060.69
2022-09-12T19:04:07.757Z,99057.06
2022-09-12T19:06:44.692Z,99061.34
2022-09-12T19:09:12.320Z,99053.41
2022-09-12T19:11:40.288Z,99042.53
2022-09-12T19:14:07.784Z,99067.44
2022-09-12T19:16:34.846Z,99061.88
2022-09-12T19:19:02.672Z,99051.09
2022-09-12T19:21:30.420Z,99064.91
2022-09-12T19:24:01.625Z,99064.91
2022-09-12T19:26:28.487Z,99062.88
2022-09-12T19:28:55.622Z,99065.56
2022-09-12T19:31:23.339Z,99061.19
2022-09-12T19:33:50.548Z,99069.13
2022-09-12T19:36:41.259Z,99056.88
2022-09-12T19:39:05.821Z,99047.06
2022-09-12T19:41:33.011Z,99056.00
2022-09-12T19:43:59.894Z,99042.97
2022-09-12T19:46:26.924Z,99039.53
2022-09-12T19:48:54.129Z,99060.91
2022-09-12T19:51:21.338Z,99058.78
2022-09-12T19:53:50.200Z,99052.41
2022-09-12T19:56:17.153Z,99054.66
2022-09-12T19:58:45.374Z,99056.75
2022-09-12T20:01:13.900Z,99051.97
2022-09-12T20:03:41.212Z,99057.97
2022-09-12T20:06:09.753Z,99044.84
2022-09-12T20:08:37.834Z,99047.50
2022-09-12T20:11:04.849Z,99046.28
2022-09-12T20:13:31.707Z,99014.94
2022-09-12T20:16:06.565Z,99040.50
2022-09-12T20:18:33.644Z,99043.19
2022-09-12T20:21:11.229Z,99044.94
2022-09-12T20:23:38.165Z,99039.84
2022-09-12T20:26:05.251Z,99044.63
2022-09-12T20:28:32.310Z,99044.97
2022-09-12T20:31:07.348Z,99034.34
2022-09-12T20:33:34.408Z,99029.56
2022-09-12T20:36:10.892Z,99025.56
2022-09-12T20:38:37.947Z,99031.41
2022-09-12T20:41:06.048Z,99027.81
2022-09-12T20:43:32.909Z,99025.69
2022-09-12T20:45:59.865Z,99013.63
2022-09-12T20:48:26.936Z,99037.66
2022-09-12T20:50:53.750Z,99032.50
2022-09-12T20:53:20.953Z,99040.75
2022-09-12T20:55:51.562Z,99024.00
2022-09-12T20:58:19.347Z,99034.28
2022-09-12T21:00:46.816Z,99040.03
2022-09-12T21:03:14.493Z,99022.06
2022-09-12T21:05:45.037Z,99024.72
2022-09-12T21:08:12.139Z,99043.75
2022-09-12T21:10:42.587Z,99048.84
2022-09-12T21:13:10.435Z,99044.38
2022-09-12T21:15:38.715Z,99052.19
2022-09-12T21:18:05.743Z,99049.34
2022-09-12T21:20:32.623Z,99047.31
2022-09-12T21:22:59.730Z,99044.47
2022-09-12T21:25:28.524Z,99049.19
2022-09-12T21:27:55.410Z,99033.91
2022-09-12T21:30:22.527Z,99044.28
2022-09-12T21:32:49.342Z,99040.66
2022-09-12T21:35:16.357Z,99046.06
2022-09-12T21:37:43.320Z,99044.44
2022-09-12T21:40:10.463Z,99040.81
2022-09-12T21:42:37.377Z,99038.44
2022-09-12T21:45:04.703Z,99013.94
2022-09-12T21:47:31.507Z,99042.16
2022-09-12T21:49:58.673Z,99043.63
2022-09-12T21:52:25.731Z,99036.91
2022-09-12T21:54:52.550Z,99035.66
2022-09-12T21:57:19.468Z,99035.91
2022-09-12T21:59:46.418Z,99040.94
2022-09-12T22:02:13.844Z,99034.53
2022-09-12T22:04:40.715Z,99035.22
2022-09-12T22:07:07.962Z,99039.84
2022-09-12T22:09:34.994Z,99015.13
2022-09-12T22:12:02.421Z,99034.69
2022-09-12T22:14:29.716Z,99036.53
2022-09-12T22:16:56.915Z,99033.34
2022-09-12T22:19:23.776Z,99036.78
2022-09-12T22:22:09.321Z,99026.97
2022-09-12T22:24:36.197Z,99004.63
2022-09-12T22:27:04.658Z,99033.94
2022-09-12T22:29:31.703Z,99027.56
2022-09-12T22:31:59.145Z,99021.19
2022-09-12T22:34:26.603Z,99021.53
2022-09-12T22:36:53.480Z,99021.09
2022-09-12T22:39:20.333Z,99019.03
2022-09-12T22:41:47.188Z,99016.19
2022-09-12T22:44:14.302Z,99017.34
2022-09-12T22:46:41.392Z,99009.81
2022-09-12T22:49:08.275Z,99014.84
2022-09-12T22:51:35.370Z,99010.75
2022-09-12T22:54:02.329Z,99011.88
2022-09-12T22:56:29.254Z,99012.16
2022-09-12T22:58:56.133Z,99011.69
2022-09-12T23:01:23.983Z,99006.13
2022-09-12T23:03:51.230Z,99004.75
2022-09-12T23:06:18.167Z,99001.91
2022-09-12T23:08:45.042Z,99005.78
2022-09-12T23:11:14.006Z,99008.06
2022-09-12T23:13:44.853Z,99009.19
2022-09-12T23:16:22.789Z,98999.38
2022-09-12T23:18:49.894Z,99002.03
2022-09-12T23:21:17.956Z,99004.28
2022-09-12T23:23:44.810Z,99002.25
2022-09-12T23:26:17.313Z,98995.06
2022-09-12T23:28:48.983Z,99003.63
2022-09-12T23:31:17.152Z,98998.06
2022-09-12T23:33:44.347Z,99003.06
2022-09-12T23:36:14.389Z,98971.13
2022-09-12T23:38:42.515Z,99004.91
2022-09-12T23:41:09.501Z,98997.03
2022-09-12T23:43:36.345Z,98998.03
2022-09-12T23:46:04.609Z,98992.13
2022-09-12T23:48:32.076Z,98992.13
2022-09-12T23:50:59.247Z,98989.28
2022-09-12T23:53:26.086Z,98987.19
2022-09-12T23:55:52.942Z,98990.63
2022-09-12T23:58:21.586Z,98982.31
